sensor_id;sensor_type;location;lat;lon;timestamp;pressure;altitude;pressure_sealevel;temperature;humidity
65546;BME280;52177;55.968;37.498;2023-05-25T00:00:17;99754.31;;;14.49;76.41
65546;BME280;52177;55.968;37.498;2023-05-25T00:00:48;99742.78;;;14.48;76.29
65546;BME280;52177;55.968;37.498;2023-05-25T00:01:18;99745.47;;;14.48;76.31
65546;BME280;52177;55.968;37.498;2023-05-25T00:01:48;99760.72;;;14.48;76.12
65546;BME280;52177;55.968;37.498;2023-05-25T00:02:23;99752.69;;;14.48;76.24
65546;BME280;52177;55.968;37.498;2023-05-25T00:02:54;99739.28;;;14.48;76.32
65546;BME280;52177;55.968;37.498;2023-05-25T00:03:25;99744.63;;;14.48;76.20
65546;BME280;52177;55.968;37.498;2023-05-25T00:03:56;99740.91;;;14.49;76.31
65546;BME280;52177;55.968;37.498;2023-05-25T00:04:29;99739.09;;;14.49;76.23
65546;BME280;52177;55.968;37.498;2023-05-25T00:05:03;99741.78;;;14.49;76.13
65546;BME280;52177;55.968;37.498;2023-05-25T00:05:35;99741.78;;;14.49;76.19
65546;BME280;52177;55.968;37.498;2023-05-25T00:06:05;99746.09;;;14.50;76.23
65546;BME280;52177;55.968;37.498;2023-05-25T00:06:36;99743.41;;;14.50;75.88
65546;BME280;52177;55.968;37.498;2023-05-25T00:07:10;99741.78;;;14.49;75.90
65546;BME280;52177;55.968;37.498;2023-05-25T00:07:40;99752.69;;;14.48;75.91
65546;BME280;52177;55.968;37.498;2023-05-25T00:08:10;99747.50;;;14.46;76.09
65546;BME280;52177;55.968;37.498;2023-05-25T00:08:41;99749.38;;;14.46;75.94
65546;BME280;52177;55.968;37.498;2023-05-25T00:09:11;99753.69;;;14.47;75.97
65546;BME280;52177;55.968;37.498;2023-05-25T00:09:42;99746.69;;;14.46;76.15
65546;BME280;52177;55.968;37.498;2023-05-25T00:10:13;99751.25;;;14.45;76.13
65546;BME280;52177;55.968;37.498;2023-05-25T00:10:43;99747.72;;;14.45;76.00
65546;BME280;52177;55.968;37.498;2023-05-25T00:11:14;99743.38;;;14.44;76.05
65546;BME280;52177;55.968;37.498;2023-05-25T00:11:48;99744.41;;;14.43;76.16
65546;BME280;52177;55.968;37.498;2023-05-25T00:12:19;99738.63;;;14.39;76.19
65546;BME280;52177;55.968;37.498;2023-05-25T00:12:49;99740.47;;;14.39;76.15
65546;BME280;52177;55.968;37.498;2023-05-25T00:13:20;99741.53;;;14.38;76.24
65546;BME280;52177;55.968;37.498;2023-05-25T00:13:50;99740.66;;;14.37;76.39
65546;BME280;52177;55.968;37.498;2023-05-25T00:14:21;99736.16;;;14.38;76.32
65546;BME280;52177;55.968;37.498;2023-05-25T00:14:51;99742.53;;;14.36;76.35
65546;BME280;52177;55.968;37.498;2023-05-25T00:15:22;99729.31;;;14.35;76.33
65546;BME280;52177;55.968;37.498;2023-05-25T00:15:52;99737.16;;;14.36;76.20
65546;BME280;52177;55.968;37.498;2023-05-25T00:16:23;99730.16;;;14.35;76.17
65546;BME280;52177;55.968;37.498;2023-05-25T00:16:53;99730.97;;;14.36;76.27
65546;BME280;52177;55.968;37.498;2023-05-25T00:17:24;99733.66;;;14.36;76.24
65546;BME280;52177;55.968;37.498;2023-05-25T00:17:54;99725.44;;;14.38;76.23
65546;BME280;52177;55.968;37.498;2023-05-25T00:18:25;99724.56;;;14.37;76.33
65546;BME280;52177;55.968;37.498;2023-05-25T00:18:56;99732.63;;;14.37;76.18
65546;BME280;52177;55.968;37.498;2023-05-25T00:19:26;99727.25;;;14.37;76.22
65546;BME280;52177;55.968;37.498;2023-05-25T00:19:57;99730.97;;;14.36;76.20
65546;BME280;52177;55.968;37.498;2023-05-25T00:20:31;99722.13;;;14.35;76.22
65546;BME280;52177;55.968;37.498;2023-05-25T00:21:03;99723.13;;;14.34;76.36
65546;BME280;52177;55.968;37.498;2023-05-25T00:21:35;99730.16;;;14.35;76.30
65546;BME280;52177;55.968;37.498;2023-05-25T00:22:09;99718.59;;;14.35;76.31
65546;BME280;52177;55.968;37.498;2023-05-25T00:22:42;99728.31;;;14.36;76.38
65546;BME280;52177;55.968;37.498;2023-05-25T00:23:14;99724.56;;;14.37;76.40
65546;BME280;52177;55.968;37.498;2023-05-25T00:23:44;99724.38;;;14.39;76.26
65546;BME280;52177;55.968;37.498;2023-05-25T00:24:15;99728.94;;;14.38;75.97
65546;BME280;52177;55.968;37.498;2023-05-25T00:24:46;99727.06;;;14.39;75.96
65546;BME280;52177;55.968;37.498;2023-05-25T00:25:16;99725.63;;;14.36;75.76
65546;BME280;52177;55.968;37.498;2023-05-25T00:25:47;99726.03;;;14.33;75.89
65546;BME280;52177;55.968;37.498;2023-05-25T00:26:17;99724.53;;;14.30;76.18
65546;BME280;52177;55.968;37.498;2023-05-25T00:26:48;99730.31;;;14.27;76.24
65546;BME280;52177;55.968;37.498;2023-05-25T00:27:18;99728.69;;;14.26;76.22
65546;BME280;52177;55.968;37.498;2023-05-25T00:27:49;99730.72;;;14.24;76.41
65546;BME280;52177;55.968;37.498;2023-05-25T00:28:19;99735.28;;;14.24;76.53
65546;BME280;52177;55.968;37.498;2023-05-25T00:28:49;99730.09;;;14.22;76.54
65546;BME280;52177;55.968;37.498;2023-05-25T00:29:20;99735.47;;;14.22;76.53
65546;BME280;52177;55.968;37.498;2023-05-25T00:29:50;99736.28;;;14.23;76.64
65546;BME280;52177;55.968;37.498;2023-05-25T00:30:21;99734.22;;;14.25;76.73
65546;BME280;52177;55.968;37.498;2023-05-25T00:30:51;99743.94;;;14.26;76.86
65546;BME280;52177;55.968;37.498;2023-05-25T00:31:22;99729.69;;;14.25;76.69
65546;BME280;52177;55.968;37.498;2023-05-25T00:31:52;99739.41;;;14.26;76.59
65546;BME280;52177;55.968;37.498;2023-05-25T00:32:23;99732.19;;;14.27;76.52
65546;BME280;52177;55.968;37.498;2023-05-25T00:32:53;99735.69;;;14.27;76.56
65546;BME280;52177;55.968;37.498;2023-05-25T00:33:24;99740.41;;;14.25;76.52
65546;BME280;52177;55.968;37.498;2023-05-25T00:33:54;99745.78;;;14.25;76.45
65546;BME280;52177;55.968;37.498;2023-05-25T00:34:25;99741.44;;;14.24;76.43
65546;BME280;52177;55.968;37.498;2023-05-25T00:34:55;99738.78;;;14.24;76.29
65546;BME280;52177;55.968;37.498;2023-05-25T00:35:26;99738.97;;;14.23;76.39
65546;BME280;52177;55.968;37.498;2023-05-25T00:35:56;99733.59;;;14.23;76.28
65546;BME280;52177;55.968;37.498;2023-05-25T00:36:27;99734.63;;;14.22;76.33
65546;BME280;52177;55.968;37.498;2023-05-25T00:36:58;99738.97;;;14.23;76.42
65546;BME280;52177;55.968;37.498;2023-05-25T00:37:28;99744.31;;;14.23;76.40
65546;BME280;52177;55.968;37.498;2023-05-25T00:37:58;99738.13;;;14.22;76.36
65546;BME280;52177;55.968;37.498;2023-05-25T00:38:29;99745.13;;;14.23;76.23
65546;BME280;52177;55.968;37.498;2023-05-25T00:38:59;99738.97;;;14.23;76.08
65546;BME280;52177;55.968;37.498;2023-05-25T00:39:30;99740.81;;;14.22;75.92
65546;BME280;52177;55.968;37.498;2023-05-25T00:40:00;99740.81;;;14.22;76.05
65546;BME280;52177;55.968;37.498;2023-05-25T00:40:31;99742.69;;;14.22;75.96
65546;BME280;52177;55.968;37.498;2023-05-25T00:41:02;99740.00;;;14.22;76.10
65546;BME280;52177;55.968;37.498;2023-05-25T00:41:36;99737.69;;;14.19;76.18
65546;BME280;52177;55.968;37.498;2023-05-25T00:42:10;99737.91;;;14.17;76.04
65546;BME280;52177;55.968;37.498;2023-05-25T00:42:42;99735.59;;;14.14;76.31
65546;BME280;52177;55.968;37.498;2023-05-25T00:43:13;99736.00;;;14.11;76.37
65546;BME280;52177;55.968;37.498;2023-05-25T00:43:46;99733.75;;;14.08;76.42
65546;BME280;52177;55.968;37.498;2023-05-25T00:44:16;99735.78;;;14.06;76.62
65546;BME280;52177;55.968;37.498;2023-05-25T00:44:50;99733.28;;;14.04;76.55
65546;BME280;52177;55.968;37.498;2023-05-25T00:45:21;99735.34;;;14.02;76.47
65546;BME280;52177;55.968;37.498;2023-05-25T00:45:51;99734.53;;;14.02;76.71
65546;BME280;52177;55.968;37.498;2023-05-25T00:46:23;99728.53;;;14.00;76.82
65546;BME280;52177;55.968;37.498;2023-05-25T00:46:53;99731.22;;;14.00;76.90
65546;BME280;52177;55.968;37.498;2023-05-25T00:47:24;99734.75;;;14.00;76.95
65546;BME280;52177;55.968;37.498;2023-05-25T00:47:55;99737.41;;;14.00;77.06
65546;BME280;52177;55.968;37.498;2023-05-25T00:48:25;99735.75;;;13.99;77.37
65546;BME280;52177;55.968;37.498;2023-05-25T00:48:55;99734.94;;;13.99;77.22
65546;BME280;52177;55.968;37.498;2023-05-25T00:49:27;99727.91;;;13.98;77.05
65546;BME280;52177;55.968;37.498;2023-05-25T00:49:59;99739.47;;;13.98;77.11
65546;BME280;52177;55.968;37.498;2023-05-25T00:50:39;99730.56;;;13.98;77.12
65546;BME280;52177;55.968;37.498;2023-05-25T00:51:14;99728.94;;;13.97;77.21
65546;BME280;52177;55.968;37.498;2023-05-25T00:51:45;99734.28;;;13.97;76.99
65546;BME280;52177;55.968;37.498;2023-05-25T00:52:17;99728.75;;;13.98;77.13
65546;BME280;52177;55.968;37.498;2023-05-25T00:52:48;99734.09;;;13.98;76.98
65546;BME280;52177;55.968;37.498;2023-05-25T00:53:19;99733.88;;;14.00;77.07
65546;BME280;52177;55.968;37.498;2023-05-25T00:53:50;99735.56;;;14.01;76.87
65546;BME280;52177;55.968;37.498;2023-05-25T00:54:20;99735.56;;;14.01;76.65
65546;BME280;52177;55.968;37.498;2023-05-25T00:54:53;99730.38;;;13.99;76.43
65546;BME280;52177;55.968;37.498;2023-05-25T00:55:26;99739.47;;;13.98;76.41
65546;BME280;52177;55.968;37.498;2023-05-25T00:56:07;99736.78;;;13.98;76.66
65546;BME280;52177;55.968;37.498;2023-05-25T00:56:43;99732.03;;;13.93;nan
65546;BME280;52177;55.968;37.498;2023-05-25T00:57:16;99737.56;;;13.92;76.67
65546;BME280;52177;55.968;37.498;2023-05-25T00:57:50;99735.06;;;13.90;76.77
65546;BME280;52177;55.968;37.498;2023-05-25T00:58:26;99728.06;;;13.89;76.93
65546;BME280;52177;55.968;37.498;2023-05-25T00:59:01;99732.41;;;13.90;77.14
65546;BME280;52177;55.968;37.498;2023-05-25T00:59:41;99734.06;;;13.91;77.07
65546;BME280;52177;55.968;37.498;2023-05-25T01:00:14;99723.53;;;13.90;77.27
65546;BME280;52177;55.968;37.498;2023-05-25T01:00:45;99726.22;;;13.90;77.43
65546;BME280;52177;55.968;37.498;2023-05-25T01:01:20;99729.72;;;13.90;77.45
65546;BME280;52177;55.968;37.498;2023-05-25T01:01:52;99721.88;;;13.89;77.42
65546;BME280;52177;55.968;37.498;2023-05-25T01:02:24;99726.44;;;13.88;77.41
65546;BME280;52177;55.968;37.498;2023-05-25T01:02:56;99724.56;;;13.89;77.33
65546;BME280;52177;55.968;37.498;2023-05-25T01:03:30;99720.03;;;13.89;77.39
65546;BME280;52177;55.968;37.498;2023-05-25T01:04:08;99718.38;;;13.88;77.33
65546;BME280;52177;55.968;37.498;2023-05-25T01:04:42;99717.53;;;13.88;77.52
65546;BME280;52177;55.968;37.498;2023-05-25T01:05:15;99720.22;;;13.88;77.70
65546;BME280;52177;55.968;37.498;2023-05-25T01:05:47;99717.53;;;13.88;77.76
65546;BME280;52177;55.968;37.498;2023-05-25T01:06:20;99721.25;;;13.87;77.56
65546;BME280;52177;55.968;37.498;2023-05-25T01:06:57;99716.31;;;13.84;77.52
65546;BME280;52177;55.968;37.498;2023-05-25T01:07:29;99713.81;;;13.82;77.55
65546;BME280;52177;55.968;37.498;2023-05-25T01:08:01;99716.50;;;13.82;77.65
65546;BME280;52177;55.968;37.498;2023-05-25T01:08:34;99708.84;;;13.79;77.73
65546;BME280;52177;55.968;37.498;2023-05-25T01:09:07;99713.34;;;13.79;77.84
65546;BME280;52177;55.968;37.498;2023-05-25T01:09:40;99707.19;;;13.78;77.84
65546;BME280;52177;55.968;37.498;2023-05-25T01:10:14;99708.22;;;13.77;78.15
65546;BME280;52177;55.968;37.498;2023-05-25T01:10:48;99709.22;;;13.76;78.25
65546;BME280;52177;55.968;37.498;2023-05-25T01:11:25;99705.31;;;13.79;78.25
65546;BME280;52177;55.968;37.498;2023-05-25T01:11:57;99703.88;;;13.76;78.29
65546;BME280;52177;55.968;37.498;2023-05-25T01:12:33;99701.19;;;13.76;78.22
65546;BME280;52177;55.968;37.498;2023-05-25T01:13:06;99704.91;;;13.75;78.21
65546;BME280;52177;55.968;37.498;2023-05-25T01:13:39;99701.19;;;13.76;78.19
65546;BME280;52177;55.968;37.498;2023-05-25T01:14:11;99692.16;;;13.77;78.08
65546;BME280;52177;55.968;37.498;2023-05-25T01:14:42;99694.59;;;13.79;78.15
65546;BME280;52177;55.968;37.498;2023-05-25T01:15:12;99688.25;;;13.80;78.13
65546;BME280;52177;55.968;37.498;2023-05-25T01:15:44;99696.06;;;13.81;77.80
65546;BME280;52177;55.968;37.498;2023-05-25T01:16:15;99690.69;;;13.81;77.81
65546;BME280;52177;55.968;37.498;2023-05-25T01:16:47;99693.38;;;13.81;77.75
65546;BME280;52177;55.968;37.498;2023-05-25T01:17:17;99696.06;;;13.81;77.48
65546;BME280;52177;55.968;37.498;2023-05-25T01:17:50;99689.88;;;13.81;77.48
65546;BME280;52177;55.968;37.498;2023-05-25T01:18:23;99690.09;;;13.79;77.24
65546;BME280;52177;55.968;37.498;2023-05-25T01:18:53;99693.78;;;13.78;77.29
65546;BME280;52177;55.968;37.498;2023-05-25T01:19:24;99694.81;;;13.77;77.40
65546;BME280;52177;55.968;37.498;2023-05-25T01:19:54;99687.16;;;13.74;77.35
65546;BME280;52177;55.968;37.498;2023-05-25T01:20:28;99690.88;;;13.73;77.59
65546;BME280;52177;55.968;37.498;2023-05-25T01:22:03;99693.16;;;13.76;78.02
65546;BME280;52177;55.968;37.498;2023-05-25T01:23:11;99687.78;;;13.76;77.75
65546;BME280;52177;55.968;37.498;2023-05-25T01:23:49;99678.13;;;13.75;77.78
65546;BME280;52177;55.968;37.498;2023-05-25T01:25:15;99677.94;;;13.77;77.85
65546;BME280;52177;55.968;37.498;2023-05-25T01:25:53;99679.38;;;13.79;78.22
65546;BME280;52177;55.968;37.498;2023-05-25T01:26:28;99673.16;;;13.79;78.25
65546;BME280;52177;55.968;37.498;2023-05-25T01:27:08;99682.06;;;13.79;78.18
65546;BME280;52177;55.968;37.498;2023-05-25T01:27:53;99675.03;;;13.78;78.52
65546;BME280;52177;55.968;37.498;2023-05-25T01:28:32;99677.53;;;13.80;78.40
65546;BME280;52177;55.968;37.498;2023-05-25T01:29:05;99670.94;;;13.82;78.32
65546;BME280;52177;55.968;37.498;2023-05-25T01:29:36;99676.94;;;13.84;78.15
65546;BME280;52177;55.968;37.498;2023-05-25T01:30:12;99672.19;;;13.86;77.69
65546;BME280;52177;55.968;37.498;2023-05-25T01:30:46;99673.03;;;13.87;77.60
65546;BME280;52177;55.968;37.498;2023-05-25T01:31:20;99668.47;;;13.87;77.58
65546;BME280;52177;55.968;37.498;2023-05-25T01:31:52;99676.34;;;13.89;77.38
65546;BME280;52177;55.968;37.498;2023-05-25T01:32:23;99669.13;;;13.89;77.43
65546;BME280;52177;55.968;37.498;2023-05-25T01:32:54;99677.16;;;13.89;77.24
65546;BME280;52177;55.968;37.498;2023-05-25T01:33:26;99674.47;;;13.89;77.09
65546;BME280;52177;55.968;37.498;2023-05-25T01:33:56;99666.44;;;13.89;77.11
65546;BME280;52177;55.968;37.498;2023-05-25T01:34:27;99672.84;;;13.88;77.06
65546;BME280;52177;55.968;37.498;2023-05-25T01:34:59;99668.47;;;13.87;76.97
65546;BME280;52177;55.968;37.498;2023-05-25T01:35:30;99677.34;;;13.88;77.23
65546;BME280;52177;55.968;37.498;2023-05-25T01:36:02;99674.66;;;13.88;77.11
65546;BME280;52177;55.968;37.498;2023-05-25T01:36:33;99669.53;;;13.86;76.99
65546;BME280;52177;55.968;37.498;2023-05-25T01:37:03;99675.88;;;13.85;77.10
65546;BME280;52177;55.968;37.498;2023-05-25T01:37:35;99671.75;;;13.83;77.08
65546;BME280;52177;55.968;37.498;2023-05-25T01:38:09;99675.66;;;13.80;77.34
65546;BME280;52177;55.968;37.498;2023-05-25T01:38:40;99678.75;;;13.77;77.41
65546;BME280;52177;55.968;37.498;2023-05-25T01:39:11;99676.44;;;13.74;77.61
65546;BME280;52177;55.968;37.498;2023-05-25T01:39:42;99673.97;;;13.72;77.84
65546;BME280;52177;55.968;37.498;2023-05-25T01:40:13;99677.47;;;13.73;78.04
65546;BME280;52177;55.968;37.498;2023-05-25T01:40:44;99681.19;;;13.72;78.06
65546;BME280;52177;55.968;37.498;2023-05-25T01:41:15;99680.78;;;13.75;78.22
65546;BME280;52177;55.968;37.498;2023-05-25T01:41:45;99678.75;;;13.77;78.20
65546;BME280;52177;55.968;37.498;2023-05-25T01:42:16;99681.22;;;13.79;78.23
65546;BME280;52177;55.968;37.498;2023-05-25T01:42:46;99684.75;;;13.79;78.11
65546;BME280;52177;55.968;37.498;2023-05-25T01:43:16;99679.97;;;13.81;78.24
65546;BME280;52177;55.968;37.498;2023-05-25T01:43:47;99684.16;;;13.84;78.20
65546;BME280;52177;55.968;37.498;2023-05-25T01:44:18;99684.75;;;13.86;78.27
65546;BME280;52177;55.968;37.498;2023-05-25T01:44:48;99683.56;;;13.88;78.20
65546;BME280;52177;55.968;37.498;2023-05-25T01:45:20;99686.00;;;13.90;78.15
65546;BME280;52177;55.968;37.498;2023-05-25T01:45:56;99685.81;;;13.91;78.26
65546;BME280;52177;55.968;37.498;2023-05-25T01:46:52;99687.28;;;13.94;77.93
65546;BME280;52177;55.968;37.498;2023-05-25T01:49:40;99696.19;;;14.01;77.56
65546;BME280;52177;55.968;37.498;2023-05-25T01:50:40;99686.50;;;14.00;77.53
65546;BME280;52177;55.968;37.498;2023-05-25T01:51:18;99699.03;;;14.00;77.57
65546;BME280;52177;55.968;37.498;2023-05-25T01:52:03;99689.38;;;13.99;77.63
65546;BME280;52177;55.968;37.498;2023-05-25T01:53:01;99692.88;;;13.99;77.62
65546;BME280;52177;55.968;37.498;2023-05-25T01:53:40;99697.22;;;14.00;77.78
65546;BME280;52177;55.968;37.498;2023-05-25T01:54:18;99698.66;;;14.03;77.69
65546;BME280;52177;55.968;37.498;2023-05-25T01:54:56;99701.97;;;14.05;77.49
65546;BME280;52177;55.968;37.498;2023-05-25T01:55:35;99696.63;;;14.05;77.41
65546;BME280;52177;55.968;37.498;2023-05-25T01:56:08;99689.41;;;14.05;77.22
65546;BME280;52177;55.968;37.498;2023-05-25T01:56:42;99699.50;;;14.03;77.35
65546;BME280;52177;55.968;37.498;2023-05-25T01:57:17;99694.94;;;14.04;77.25
65546;BME280;52177;55.968;37.498;2023-05-25T01:57:49;99694.13;;;14.03;77.38
65546;BME280;52177;55.968;37.498;2023-05-25T01:58:21;99694.94;;;14.04;77.50
65546;BME280;52177;55.968;37.498;2023-05-25T01:58:55;99700.31;;;14.04;77.47
65546;BME280;52177;55.968;37.498;2023-05-25T01:59:28;99685.06;;;14.04;77.69
65546;BME280;52177;55.968;37.498;2023-05-25T02:00:01;99683.22;;;14.05;77.66
65546;BME280;52177;55.968;37.498;2023-05-25T02:00:33;99684.84;;;14.06;77.86
65546;BME280;52177;55.968;37.498;2023-05-25T02:01:07;99684.84;;;14.06;77.90
65546;BME280;52177;55.968;37.498;2023-05-25T02:01:40;99681.34;;;14.05;77.90
65546;BME280;52177;55.968;37.498;2023-05-25T02:02:16;99684.22;;;14.04;78.00
65546;BME280;52177;55.968;37.498;2023-05-25T02:02:48;99684.03;;;14.05;77.93
65546;BME280;52177;55.968;37.498;2023-05-25T02:03:20;99680.72;;;14.03;77.87
65546;BME280;52177;55.968;37.498;2023-05-25T02:03:53;99679.69;;;14.04;78.05
65546;BME280;52177;55.968;37.498;2023-05-25T02:04:24;99683.22;;;14.05;78.06
65546;BME280;52177;55.968;37.498;2023-05-25T02:04:55;99678.88;;;14.04;78.18
65546;BME280;52177;55.968;37.498;2023-05-25T02:05:26;99678.03;;;14.03;78.11
65546;BME280;52177;55.968;37.498;2023-05-25T02:05:57;99675.38;;;14.03;78.23
65546;BME280;52177;55.968;37.498;2023-05-25T02:06:27;99679.06;;;14.02;78.21
65546;BME280;52177;55.968;37.498;2023-05-25T02:06:58;99681.53;;;14.04;78.34
65546;BME280;52177;55.968;37.498;2023-05-25T02:07:28;99681.53;;;14.04;78.52
65546;BME280;52177;55.968;37.498;2023-05-25T02:07:59;99674.31;;;14.04;78.44
65546;BME280;52177;55.968;37.498;2023-05-25T02:08:29;99676.81;;;14.06;78.56
65546;BME280;52177;55.968;37.498;2023-05-25T02:09:00;99685.50;;;14.08;78.41
65546;BME280;52177;55.968;37.498;2023-05-25T02:09:30;99681.59;;;14.10;78.45
65546;BME280;52177;55.968;37.498;2023-05-25T02:10:01;99680.53;;;14.11;78.40
65546;BME280;52177;55.968;37.498;2023-05-25T02:10:31;99686.75;;;14.12;78.52
65546;BME280;52177;55.968;37.498;2023-05-25T02:11:02;99680.16;;;14.14;78.47
65546;BME280;52177;55.968;37.498;2023-05-25T02:11:32;99680.78;;;14.17;78.79
65546;BME280;52177;55.968;37.498;2023-05-25T02:12:03;99688.63;;;14.18;78.98
65546;BME280;52177;55.968;37.498;2023-05-25T02:12:34;99690.28;;;14.19;79.16
65546;BME280;52177;55.968;37.498;2023-05-25T02:13:04;99686.75;;;14.19;79.27
65546;BME280;52177;55.968;37.498;2023-05-25T02:13:35;99687.19;;;14.22;79.37
65546;BME280;52177;55.968;37.498;2023-05-25T02:14:05;99692.56;;;14.22;79.23
65546;BME280;52177;55.968;37.498;2023-05-25T02:14:35;99689.47;;;14.25;79.19
65546;BME280;52177;55.968;37.498;2023-05-25T02:15:06;99690.31;;;14.26;79.10
65546;BME280;52177;55.968;37.498;2023-05-25T02:15:37;99694.44;;;14.28;78.96
65546;BME280;52177;55.968;37.498;2023-05-25T02:16:07;99688.88;;;14.30;78.89
65546;BME280;52177;55.968;37.498;2023-05-25T02:16:38;99696.72;;;14.31;79.01
65546;BME280;52177;55.968;37.498;2023-05-25T02:17:08;99695.50;;;14.34;79.03
65546;BME280;52177;55.968;37.498;2023-05-25T02:17:41;99693.44;;;14.36;78.79
65546;BME280;52177;55.968;37.498;2023-05-25T02:18:12;99692.41;;;14.37;78.56
65546;BME280;52177;55.968;37.498;2023-05-25T02:18:43;99693.84;;;14.40;78.60
65546;BME280;52177;55.968;37.498;2023-05-25T02:19:13;99698.19;;;14.41;78.74
65546;BME280;52177;55.968;37.498;2023-05-25T02:19:45;99702.53;;;14.42;78.70
65546;BME280;52177;55.968;37.498;2023-05-25T02:20:17;99705.63;;;14.45;78.69
65546;BME280;52177;55.968;37.498;2023-05-25T02:20:48;99697.59;;;14.45;78.59
65546;BME280;52177;55.968;37.498;2023-05-25T02:21:18;99694.69;;;14.47;78.49
65546;BME280;52177;55.968;37.498;2023-05-25T02:21:49;99697.19;;;14.48;78.54
65546;BME280;52177;55.968;37.498;2023-05-25T02:22:20;99700.69;;;14.49;78.56
65546;BME280;52177;55.968;37.498;2023-05-25T02:22:51;99703.81;;;14.52;78.52
65546;BME280;52177;55.968;37.498;2023-05-25T02:23:21;99697.63;;;14.52;78.68
65546;BME280;52177;55.968;37.498;2023-05-25T02:23:52;99701.13;;;14.52;78.57
65546;BME280;52177;55.968;37.498;2023-05-25T02:24:23;99699.25;;;14.53;78.45
65546;BME280;52177;55.968;37.498;2023-05-25T02:24:54;99696.56;;;14.53;78.57
65546;BME280;52177;55.968;37.498;2023-05-25T02:25:24;99695.75;;;14.52;78.54
65546;BME280;52177;55.968;37.498;2023-05-25T02:25:55;99703.66;;;14.54;78.46
65546;BME280;52177;55.968;37.498;2023-05-25T02:26:25;99695.75;;;14.52;78.48
65546;BME280;52177;55.968;37.498;2023-05-25T02:26:56;99701.13;;;14.52;78.65
65546;BME280;52177;55.968;37.498;2023-05-25T02:27:26;99703.81;;;14.52;78.78
65546;BME280;52177;55.968;37.498;2023-05-25T02:27:56;99706.69;;;14.51;78.74
65546;BME280;52177;55.968;37.498;2023-05-25T02:28:27;99707.50;;;14.51;78.67
65546;BME280;52177;55.968;37.498;2023-05-25T02:28:57;99703.81;;;14.52;78.63
65546;BME280;52177;55.968;37.498;2023-05-25T02:29:28;99706.47;;;14.52;78.83
65546;BME280;52177;55.968;37.498;2023-05-25T02:29:58;99711.84;;;14.52;79.04
65546;BME280;52177;55.968;37.498;2023-05-25T02:30:28;99708.78;;;14.55;78.91
65546;BME280;52177;55.968;37.498;2023-05-25T02:30:59;99711.28;;;14.57;79.03
65546;BME280;52177;55.968;37.498;2023-05-25T02:31:30;99712.91;;;14.58;79.10
65546;BME280;52177;55.968;37.498;2023-05-25T02:32:00;99710.84;;;14.60;79.09
65546;BME280;52177;55.968;37.498;2023-05-25T02:32:30;99708.81;;;14.62;79.21
65546;BME280;52177;55.968;37.498;2023-05-25T02:33:02;99711.06;;;14.65;79.01
65546;BME280;52177;55.968;37.498;2023-05-25T02:33:33;99715.00;;;14.69;78.95
65546;BME280;52177;55.968;37.498;2023-05-25T02:34:03;99716.47;;;14.72;78.86
65546;BME280;52177;55.968;37.498;2023-05-25T02:34:33;99710.91;;;14.73;78.96
65546;BME280;52177;55.968;37.498;2023-05-25T02:35:04;99714.63;;;14.79;78.88
65546;BME280;52177;55.968;37.498;2023-05-25T02:35:35;99709.06;;;14.81;78.79
65546;BME280;52177;55.968;37.498;2023-05-25T02:36:06;99711.56;;;14.82;78.69
65546;BME280;52177;55.968;37.498;2023-05-25T02:36:36;99710.09;;;14.86;78.74
65546;BME280;52177;55.968;37.498;2023-05-25T02:37:08;99704.53;;;14.88;78.60
65546;BME280;52177;55.968;37.498;2023-05-25T02:37:39;99704.09;;;14.91;78.70
65546;BME280;52177;55.968;37.498;2023-05-25T02:38:09;99709.09;;;14.94;78.58
65546;BME280;52177;55.968;37.498;2023-05-25T02:38:40;99707.00;;;14.96;78.70
65546;BME280;52177;55.968;37.498;2023-05-25T02:39:10;99704.94;;;14.98;78.53
65546;BME280;52177;55.968;37.498;2023-05-25T02:39:40;99704.75;;;14.99;78.53
65546;BME280;52177;55.968;37.498;2023-05-25T02:40:11;99707.22;;;15.01;78.60
65546;BME280;52177;55.968;37.498;2023-05-25T02:40:44;99705.19;;;15.03;78.53
65546;BME280;52177;55.968;37.498;2023-05-25T02:41:15;99708.44;;;15.05;78.51
65546;BME280;52177;55.968;37.498;2023-05-25T02:41:45;99704.75;;;15.06;78.51
65546;BME280;52177;55.968;37.498;2023-05-25T02:42:16;99708.88;;;15.09;78.57
65546;BME280;52177;55.968;37.498;2023-05-25T02:42:46;99714.06;;;15.10;78.47
65546;BME280;52177;55.968;37.498;2023-05-25T02:43:16;99707.66;;;15.11;78.52
65546;BME280;52177;55.968;37.498;2023-05-25T02:43:47;99710.13;;;15.13;78.48
65546;BME280;52177;55.968;37.498;2023-05-25T02:44:17;99709.72;;;15.16;78.49
65546;BME280;52177;55.968;37.498;2023-05-25T02:44:48;99708.66;;;15.17;78.50
65546;BME280;52177;55.968;37.498;2023-05-25T02:45:18;99711.16;;;15.18;78.45
65546;BME280;52177;55.968;37.498;2023-05-25T02:45:48;99711.78;;;15.20;78.55
65546;BME280;52177;55.968;37.498;2023-05-25T02:46:19;99713.22;;;15.23;78.47
65546;BME280;52177;55.968;37.498;2023-05-25T02:46:50;99717.34;;;15.26;78.50
65546;BME280;52177;55.968;37.498;2023-05-25T02:47:20;99716.09;;;15.28;78.45
65546;BME280;52177;55.968;37.498;2023-05-25T02:47:50;99718.59;;;15.30;78.41
65546;BME280;52177;55.968;37.498;2023-05-25T02:48:21;99721.91;;;15.32;78.39
65546;BME280;52177;55.968;37.498;2023-05-25T02:48:51;99718.78;;;15.35;78.26
65546;BME280;52177;55.968;37.498;2023-05-25T02:49:22;99727.47;;;15.37;78.31
65546;BME280;52177;55.968;37.498;2023-05-25T02:49:52;99720.88;;;15.39;78.17
65546;BME280;52177;55.968;37.498;2023-05-25T02:50:23;99733.06;;;15.42;78.21
65546;BME280;52177;55.968;37.498;2023-05-25T02:50:53;99726.44;;;15.45;78.17
65546;BME280;52177;55.968;37.498;2023-05-25T02:51:24;99729.53;;;15.48;78.16
65546;BME280;52177;55.968;37.498;2023-05-25T02:51:54;99732.84;;;15.50;78.11
65546;BME280;52177;55.968;37.498;2023-05-25T02:52:25;99730.78;;;15.52;78.25